createdAt,value
2022-07-25T00:02:08.853Z,94.90
2022-07-25T00:07:11.135Z,94.90
2022-07-25T00:12:12.828Z,94.90
2022-07-25T00:17:14.706Z,94.90
2022-07-25T00:22:16.411Z,94.80
2022-07-25T00:27:18.252Z,94.90
2022-07-25T00:32:19.993Z,95.60
2022-07-25T00:37:21.723Z,95.40
2022-07-25T00:42:24.191Z,95.20
2022-07-25T00:47:26.249Z,95.80
2022-07-25T00:52:28.110Z,96.00
2022-07-25T00:57:29.957Z,95.90
2022-07-25T01:02:31.691Z,96.00
2022-07-25T01:07:33.720Z,96.40
2022-07-25T01:12:49.784Z,96.80
2022-07-25T01:17:52.052Z,97.00
2022-07-25T01:22:54.410Z,97.00
2022-07-25T01:27:56.322Z,96.50
2022-07-25T01:32:58.130Z,96.60
2022-07-25T01:37:59.805Z,96.70
2022-07-25T01:43:01.517Z,96.80
2022-07-25T01:48:03.450Z,97.10
2022-07-25T01:53:05.328Z,97.20
2022-07-25T01:58:07.428Z,97.40
2022-07-25T02:03:28.053Z,97.70
2022-07-25T02:08:31.109Z,98.00
2022-07-25T02:13:32.944Z,98.70
2022-07-25T02:18:34.711Z,98.60
2022-07-25T02:23:37.212Z,98.70
2022-07-25T02:28:39.646Z,99.00
2022-07-25T02:33:41.538Z,99.30
2022-07-25T02:38:43.379Z,99.50
2022-07-25T02:43:45.096Z,99.90
2022-07-25T02:48:46.931Z,99.90
2022-07-25T02:53:57.076Z,99.90
2022-07-25T02:59:00.122Z,99.90
2022-07-25T03:04:02.054Z,99.90
2022-07-25T03:09:04.551Z,99.90
2022-07-25T03:14:08.768Z,99.90
2022-07-25T03:19:12.742Z,99.90
2022-07-25T03:24:14.804Z,99.90
2022-07-25T03:29:16.538Z,99.90
2022-07-25T03:34:18.339Z,99.90
2022-07-25T03:39:20.732Z,99.90
2022-07-25T03:44:24.412Z,99.90
2022-07-25T03:49:26.118Z,99.90
2022-07-25T03:54:27.838Z,99.90
2022-07-25T03:59:29.550Z,99.90
2022-07-25T04:04:31.344Z,99.90
2022-07-25T04:09:33.671Z,99.90
2022-07-25T04:14:35.699Z,99.90
2022-07-25T04:19:37.444Z,99.90
2022-07-25T04:24:39.257Z,99.90
2022-07-25T04:29:40.982Z,99.90
2022-07-25T04:34:43.765Z,99.90
2022-07-25T04:39:45.593Z,99.90
2022-07-25T04:44:47.285Z,99.90
2022-07-25T04:49:49.249Z,99.90
2022-07-25T04:54:50.960Z,99.90
2022-07-25T04:59:52.675Z,99.90
2022-07-25T05:04:54.365Z,99.90
2022-07-25T05:09:56.214Z,99.90
2022-07-25T05:14:57.977Z,99.90
2022-07-25T05:19:59.741Z,99.90
2022-07-25T05:25:02.484Z,99.90
2022-07-25T05:30:05.912Z,99.90
2022-07-25T05:35:08.716Z,99.90
2022-07-25T05:40:10.649Z,99.90
2022-07-25T05:45:12.657Z,99.90
2022-07-25T05:50:14.369Z,99.90
2022-07-25T05:55:17.039Z,99.90
2022-07-25T06:00:18.980Z,99.90
2022-07-25T06:05:20.808Z,99.90
2022-07-25T06:10:22.600Z,99.90
2022-07-25T06:15:27.043Z,99.90
2022-07-25T06:20:29.505Z,99.90
2022-07-25T06:25:31.395Z,99.90
2022-07-25T06:30:33.528Z,99.90
2022-07-25T06:35:35.521Z,99.90
2022-07-25T06:40:37.295Z,99.90
2022-07-25T06:45:39.036Z,99.90
2022-07-25T06:50:40.843Z,99.90
2022-07-25T06:55:42.658Z,99.90
2022-07-25T07:00:44.485Z,99.90
2022-07-25T07:05:46.250Z,99.90
2022-07-25T07:10:47.999Z,99.90
2022-07-25T07:15:50.901Z,99.90
2022-07-25T07:20:53.548Z,99.90
2022-07-25T07:25:55.315Z,99.90
2022-07-25T07:36:19.535Z,99.90
2022-07-25T07:41:21.497Z,99.90
2022-07-25T07:46:23.298Z,99.90
2022-07-25T07:51:25.002Z,99.90
2022-07-25T07:56:26.724Z,99.90
2022-07-25T08:01:28.520Z,99.90
2022-07-25T08:06:30.288Z,99.90
2022-07-25T08:11:32.085Z,99.90
2022-07-25T08:16:34.331Z,99.90
2022-07-25T08:21:36.167Z,99.90
2022-07-25T08:26:37.966Z,99.90
2022-07-25T08:31:39.708Z,99.80
2022-07-25T08:36:41.459Z,99.80
2022-07-25T08:41:43.624Z,99.20
2022-07-25T08:46:46.161Z,98.40
2022-07-25T08:51:51.786Z,97.70
2022-07-25T08:56:54.357Z,97.60
2022-07-25T09:01:56.109Z,97.30
2022-07-25T09:06:57.855Z,96.60
2022-07-25T09:12:00.041Z,95.70
2022-07-25T09:17:06.637Z,95.50
2022-07-25T09:22:24.605Z,94.90
2022-07-25T09:27:26.365Z,94.80
2022-07-25T09:32:29.184Z,94.40
2022-07-25T09:37:30.862Z,94.00
2022-07-25T09:42:33.047Z,93.40
2022-07-25T09:47:37.029Z,92.70
2022-07-25T09:52:39.243Z,92.70
2022-07-25T09:57:41.416Z,92.20
2022-07-25T10:02:55.275Z,91.20
2022-07-25T10:07:57.378Z,91.00
2022-07-25T10:13:29.358Z,90.70
2022-07-25T10:18:31.564Z,89.10
2022-07-25T10:23:33.318Z,89.40
2022-07-25T10:28:41.645Z,89.00
2022-07-25T10:33:43.454Z,88.00
2022-07-25T10:38:46.349Z,88.20
2022-07-25T10:43:50.868Z,88.50
2022-07-25T10:49:03.851Z,88.50
2022-07-25T10:54:16.592Z,87.10
2022-07-25T10:59:36.266Z,86.10
2022-07-25T11:04:38.030Z,85.70
2022-07-25T11:09:41.611Z,84.50
2022-07-25T11:14:43.496Z,84.20
2022-07-25T11:19:55.206Z,82.30
2022-07-25T11:24:57.856Z,79.60
2022-07-25T11:30:14.826Z,80.60
2022-07-25T11:35:21.842Z,79.90
2022-07-25T11:40:23.894Z,79.60
2022-07-25T11:45:28.428Z,79.60
2022-07-25T11:50:31.792Z,80.70
2022-07-25T11:55:40.801Z,79.50
2022-07-25T12:00:48.790Z,80.00
2022-07-25T12:05:50.764Z,79.20
2022-07-25T12:10:52.480Z,78.40
2022-07-25T12:15:56.289Z,78.20
2022-07-25T12:20:58.031Z,77.40
2022-07-25T12:25:59.858Z,77.30
2022-07-25T12:31:01.663Z,77.00
2022-07-25T12:36:08.300Z,76.60
2022-07-25T12:41:13.465Z,76.70
2022-07-25T12:46:17.889Z,76.00
2022-07-25T12:51:20.408Z,74.80
2022-07-25T12:56:22.210Z,74.70
2022-07-25T13:01:23.944Z,74.10
2022-07-25T13:06:25.801Z,72.70
2022-07-25T13:11:27.615Z,71.10
2022-07-25T13:16:29.431Z,69.40
2022-07-25T13:21:31.328Z,68.00
2022-07-25T13:26:33.447Z,67.20
2022-07-25T13:31:36.031Z,66.30
2022-07-25T13:36:38.857Z,65.90
2022-07-25T13:41:40.790Z,65.70
2022-07-25T13:46:46.078Z,65.60
2022-07-25T13:51:48.107Z,65.10
2022-07-25T13:56:49.886Z,65.00
2022-07-25T14:01:51.625Z,65.00
2022-07-25T14:06:53.710Z,64.10
2022-07-25T14:11:55.484Z,64.00
2022-07-25T14:16:58.112Z,64.10
2022-07-25T14:21:59.867Z,63.40
2022-07-25T14:27:02.490Z,63.40
2022-07-25T14:32:08.306Z,63.20
2022-07-25T14:37:10.174Z,63.00
2022-07-25T14:42:12.099Z,63.20
2022-07-25T14:47:13.964Z,62.70
2022-07-25T14:52:16.455Z,62.90
2022-07-25T14:57:18.694Z,63.50
2022-07-25T15:02:20.510Z,64.70
2022-07-25T15:07:22.310Z,64.90
2022-07-25T15:12:24.013Z,65.10
2022-07-25T15:17:25.882Z,65.50
2022-07-25T15:22:27.654Z,65.10
2022-07-25T15:27:29.495Z,65.80
2022-07-25T15:32:31.199Z,66.60
2022-07-25T15:37:33.015Z,66.00
2022-07-25T15:42:35.168Z,66.40
2022-07-25T15:47:38.507Z,66.20
2022-07-25T15:52:40.176Z,66.10
2022-07-25T15:57:42.007Z,65.50
2022-07-25T16:02:44.963Z,65.30
2022-07-25T16:07:46.753Z,66.10
2022-07-25T16:12:49.007Z,67.00
2022-07-25T16:17:52.992Z,68.40
2022-07-25T16:22:56.028Z,69.30
2022-07-25T16:27:58.448Z,70.40
2022-07-25T16:33:00.160Z,95.60
2022-07-25T16:38:02.002Z,99.90
2022-07-25T16:43:06.811Z,99.90
2022-07-25T16:48:09.101Z,99.90
2022-07-25T16:53:10.873Z,99.90
2022-07-25T16:58:12.682Z,99.90
2022-07-25T17:03:16.064Z,99.90
2022-07-25T17:08:18.188Z,99.90
2022-07-25T17:13:20.158Z,99.90
2022-07-25T17:18:21.990Z,99.90
2022-07-25T17:23:23.919Z,99.90
2022-07-25T17:28:25.732Z,99.90
2022-07-25T17:33:28.036Z,99.90
2022-07-25T17:38:34.656Z,99.90
2022-07-25T17:43:36.986Z,99.90
2022-07-25T17:48:39.335Z,99.90
2022-07-25T17:53:41.193Z,99.90
2022-07-25T17:58:42.990Z,99.90
2022-07-25T18:03:47.611Z,99.90
2022-07-25T18:08:49.324Z,99.90
2022-07-25T18:13:51.124Z,99.90
2022-07-25T18:18:52.865Z,99.90
2022-07-25T18:23:54.625Z,99.90
2022-07-25T18:28:56.364Z,99.90
2022-07-25T18:33:58.082Z,99.90
2022-07-25T18:39:00.264Z,99.90
2022-07-25T18:44:01.977Z,99.90
2022-07-25T18:49:03.996Z,99.90
2022-07-25T18:54:06.401Z,99.90
2022-07-25T18:59:08.740Z,99.90
2022-07-25T19:04:11.507Z,99.90
2022-07-25T19:09:13.493Z,99.90
2022-07-25T19:14:15.278Z,99.90
2022-07-25T19:19:17.929Z,99.90
2022-07-25T19:24:19.749Z,99.90
2022-07-25T19:29:21.532Z,99.90
2022-07-25T19:34:23.900Z,99.90
2022-07-25T19:39:25.632Z,99.90
2022-07-25T19:44:27.356Z,99.90
2022-07-25T19:49:29.161Z,99.90
2022-07-25T19:54:30.966Z,99.90
2022-07-25T19:59:32.924Z,99.90
2022-07-25T20:04:34.805Z,99.90
2022-07-25T20:09:36.649Z,99.90
2022-07-25T20:14:38.555Z,99.90
2022-07-25T20:19:40.571Z,99.90
2022-07-25T20:24:42.344Z,99.90
2022-07-25T20:29:44.251Z,99.90
2022-07-25T20:34:46.062Z,99.90
2022-07-25T20:39:48.312Z,99.90
2022-07-25T20:44:50.877Z,99.90
2022-07-25T20:49:52.662Z,99.90
2022-07-25T20:54:54.594Z,99.90
2022-07-25T20:59:56.335Z,99.90
2022-07-25T21:04:58.142Z,99.90
2022-07-25T21:09:59.987Z,99.90
2022-07-25T21:15:01.857Z,99.90
2022-07-25T21:20:05.155Z,99.90
2022-07-25T21:25:08.013Z,99.90
2022-07-25T21:30:10.990Z,99.90
2022-07-25T21:35:12.712Z,99.90
2022-07-25T21:40:14.712Z,99.90
2022-07-25T21:45:16.589Z,99.90
2022-07-25T21:50:36.874Z,99.90
2022-07-25T21:55:45.582Z,99.90
2022-07-25T22:00:47.360Z,99.90
2022-07-25T22:05:49.108Z,99.90
2022-07-25T22:10:51.061Z,99.90
2022-07-25T22:15:53.802Z,99.90
2022-07-25T22:20:55.979Z,99.90
2022-07-25T22:25:57.690Z,99.90
2022-07-25T22:30:59.454Z,99.90
2022-07-25T22:36:01.699Z,99.90
2022-07-25T22:41:03.582Z,99.90
2022-07-25T22:46:05.329Z,99.90
2022-07-25T22:51:07.084Z,99.90
2022-07-25T22:56:09.070Z,99.90
2022-07-25T23:01:10.958Z,99.90
2022-07-25T23:06:12.945Z,99.90
2022-07-25T23:11:14.764Z,99.90
2022-07-25T23:16:16.641Z,99.90
2022-07-25T23:21:18.408Z,99.90
2022-07-25T23:26:20.130Z,99.90
2022-07-25T23:31:21.957Z,99.90
2022-07-25T23:36:23.716Z,99.90
2022-07-25T23:41:25.469Z,99.90
2022-07-25T23:46:30.842Z,99.90
2022-07-25T23:51:33.230Z,99.90
2022-07-25T23:56:34.913Z,99.90
